Time;durP1;ratioP1;P1;durP2;ratioP2;P2;SDS_P1;SDS_P2;PMS_P1;PMS_P2;Temp;Humidity;BMP_temperature;BMP_pressure;BME280_temperature;BME280_humidity;BME280_pressure;Samples;Min_cycle;Max_cycle;Signal;HPM_P1;HPM_P2
2022/06/25 00:01:30;;;;;;;6.50;5.85;;;21.80;61.80;;;;;;4889076;29;20206;-90
2022/06/25 00:04:04;;;;;;;6.72;6.03;;;21.80;61.80;;;;;;4888437;29;20758;-90
2022/06/25 00:06:40;;;;;;;6.57;5.97;;;21.80;61.80;;;;;;4888974;29;20191;-90
2022/06/25 00:09:06;;;;;;;7.13;6.43;;;21.90;61.80;;;;;;4889218;29;20175;-90
2022/06/25 00:14:20;;;;;;;6.78;6.18;;;21.90;61.80;;;;;;4930010;29;20258;-90
2022/06/25 00:16:46;;;;;;;6.30;5.70;;;21.80;61.80;;;;;;4926825;29;20627;-90
2022/06/25 00:19:12;;;;;;;6.57;5.97;;;21.80;61.80;;;;;;4912061;29;20228;-90
2022/06/25 00:21:40;;;;;;;6.50;5.90;;;21.90;62.70;;;;;;4911481;29;20528;-89
2022/06/25 00:24:06;;;;;;;6.53;5.93;;;21.80;61.80;;;;;;4912398;29;20177;-90
2022/06/25 00:26:35;;;;;;;6.35;5.75;;;21.90;61.90;;;;;;4912327;29;20173;-91
2022/06/25 00:29:01;;;;;;;6.78;5.85;;;21.90;61.90;;;;;;4891800;29;20205;-90
2022/06/25 00:31:27;;;;;;;6.72;6.13;;;21.80;61.90;;;;;;4892427;29;20553;-90
2022/06/25 00:33:53;;;;;;;7.20;6.50;;;21.80;61.90;;;;;;4892219;29;20295;-90
2022/06/25 00:36:23;;;;;;;7.20;6.50;;;21.80;62.00;;;;;;4892888;29;20198;-90
2022/06/25 00:38:50;;;;;;;6.45;5.85;;;21.80;61.90;;;;;;4892444;29;20206;-90
2022/06/25 00:41:18;;;;;;;6.57;5.95;;;21.80;62.00;;;;;;4877156;29;20226;-90
2022/06/25 00:43:44;;;;;;;6.50;5.90;;;21.80;62.00;;;;;;4877166;29;20190;-91
2022/06/25 00:46:09;;;;;;;6.75;6.07;;;21.80;62.00;;;;;;4892106;29;20233;-90
2022/06/25 00:48:51;;;;;;;7.78;6.82;;;21.80;62.00;;;;;;4892047;29;20182;-90
2022/06/25 00:51:17;;;;;;;6.53;5.93;;;21.80;62.00;;;;;;4888556;29;20190;-90
2022/06/25 00:53:44;;;;;;;7.30;6.47;;;21.80;62.10;;;;;;4888453;29;20700;-90
2022/06/25 00:56:12;;;;;;;6.40;5.80;;;21.80;62.10;;;;;;4889418;29;20187;-90
2022/06/25 00:58:45;;;;;;;7.10;6.40;;;21.80;62.00;;;;;;4889250;29;20666;-90
2022/06/25 01:01:14;;;;;;;6.53;5.93;;;21.80;62.00;;;;;;4889268;29;20746;-90
2022/06/25 01:03:43;;;;;;;6.72;6.03;;;21.80;62.10;;;;;;4888336;29;20175;-90
2022/06/25 01:06:11;;;;;;;6.65;5.95;;;21.80;62.10;;;;;;4888491;29;20187;-90
2022/06/25 01:08:38;;;;;;;7.13;6.25;;;21.80;62.10;;;;;;4888976;29;20184;-90
2022/06/25 01:11:07;;;;;;;6.63;5.93;;;21.80;62.10;;;;;;4888344;29;20191;-90
2022/06/25 01:13:39;;;;;;;7.05;6.35;;;21.80;62.10;;;;;;4906849;29;20229;-90
2022/06/25 01:16:05;;;;;;;7.20;6.50;;;21.70;62.00;;;;;;4910848;29;20293;-90
2022/06/25 01:18:37;;;;;;;6.90;6.20;;;21.70;62.10;;;;;;4895513;29;20241;-90
2022/06/25 01:21:11;;;;;;;6.70;5.97;;;21.80;62.10;;;;;;4910512;29;20659;-90
2022/06/25 01:23:41;;;;;;;7.00;6.30;;;21.80;62.20;;;;;;4943193;29;20188;-91
2022/06/25 01:26:06;;;;;;;7.57;6.78;;;21.70;62.20;;;;;;4927486;29;20205;-90
2022/06/25 01:28:33;;;;;;;7.00;6.10;;;21.70;62.20;;;;;;4911380;29;20189;-90
2022/06/25 01:31:00;;;;;;;6.97;6.28;;;21.70;62.20;;;;;;4912250;29;20221;-90
2022/06/25 01:33:27;;;;;;;7.10;6.40;;;21.70;62.20;;;;;;4911275;29;20664;-90
2022/06/25 01:35:55;;;;;;;6.43;5.82;;;21.70;62.30;;;;;;4911040;29;20177;-90
2022/06/25 01:38:23;;;;;;;6.25;5.65;;;21.70;62.30;;;;;;4911006;29;20262;-90
2022/06/25 01:40:50;;;;;;;7.10;6.40;;;21.70;62.30;;;;;;4911117;29;20237;-90
2022/06/25 01:43:16;;;;;;;6.70;6.00;;;21.70;62.30;;;;;;4910820;29;20205;-89
2022/06/25 01:45:42;;;;;;;7.00;6.30;;;21.70;62.30;;;;;;4910450;29;20223;-89
2022/06/25 01:48:12;;;;;;;7.05;6.35;;;21.70;62.30;;;;;;4912384;29;20264;-90
2022/06/25 01:50:38;;;;;;;7.00;6.30;;;21.70;62.30;;;;;;4895853;29;20787;-89
2022/06/25 01:53:07;;;;;;;7.43;6.63;;;21.70;62.30;;;;;;4912517;29;20245;-90
2022/06/25 01:55:35;;;;;;;7.22;6.40;;;21.70;62.40;;;;;;4928892;29;20539;-89
2022/06/25 01:58:02;;;;;;;6.70;6.00;;;21.70;62.40;;;;;;4913199;29;20174;-90
2022/06/25 02:00:30;;;;;;;6.95;6.25;;;21.70;62.40;;;;;;4913927;29;20166;-88
2022/06/25 02:02:57;;;;;;;7.47;6.68;;;21.70;62.40;;;;;;4913988;29;20169;-89
2022/06/25 02:08:02;;;;;;;6.38;5.78;;;21.70;62.50;;;;;;4929092;29;20161;-90
2022/06/25 02:10:33;;;;;;;6.78;6.10;;;21.70;62.50;;;;;;4911809;29;20177;-90
2022/06/25 02:12:59;;;;;;;7.00;6.30;;;21.70;62.40;;;;;;4910741;29;20739;-89
2022/06/25 02:15:25;;;;;;;6.57;5.97;;;21.70;62.50;;;;;;4912095;29;20636;-90
2022/06/25 02:17:52;;;;;;;6.82;6.13;;;21.60;63.20;;;;;;4914982;29;20166;-89
2022/06/25 02:20:23;;;;;;;7.20;6.50;;;21.60;62.40;;;;;;4916385;29;20170;-90
2022/06/25 02:22:49;;;;;;;7.00;6.30;;;21.70;62.60;;;;;;4940801;29;20178;-91
2022/06/25 02:25:18;;;;;;;7.20;6.50;;;21.60;62.50;;;;;;4941516;29;20221;-90
2022/06/25 02:27:50;;;;;;;6.03;5.43;;;21.60;62.50;;;;;;4935477;29;20178;-91
2022/06/25 02:30:22;;;;;;;7.55;6.82;;;21.60;62.50;;;;;;4934587;29;20193;-91
2022/06/25 02:32:53;;;;;;;7.47;6.68;;;21.60;62.50;;;;;;4935223;29;20205;-90
2022/06/25 02:38:42;;;;;;;6.55;5.90;;;21.60;62.60;;;;;;4948163;29;20177;-91
2022/06/25 02:41:11;;;;;;;7.10;6.40;;;21.60;62.50;;;;;;4914926;29;20614;-91
2022/06/25 02:43:44;;;;;;;6.70;6.10;;;21.60;62.50;;;;;;4915724;29;20170;-91
2022/06/25 02:46:10;;;;;;;7.05;6.35;;;21.60;62.60;;;;;;4930198;29;20293;-91
2022/06/25 02:48:36;;;;;;;7.22;6.53;;;21.60;62.60;;;;;;4915483;29;20229;-90
2022/06/25 02:51:05;;;;;;;7.07;6.38;;;21.70;62.60;;;;;;4915547;29;20245;-90
2022/06/25 02:53:31;;;;;;;7.10;6.40;;;21.60;62.60;;;;;;4930851;29;20273;-91
2022/06/25 03:01:19;;;;;;;6.63;6.03;;;21.70;62.60;;;;;;4932734;29;20162;-91
2022/06/25 03:03:49;;;;;;;7.25;6.55;;;21.60;62.50;;;;;;4892764;29;20766;-91
2022/06/25 03:06:16;;;;;;;7.30;6.60;;;21.70;62.50;;;;;;4876596;29;20729;-91
2022/06/25 03:08:45;;;;;;;6.90;6.28;;;21.70;62.50;;;;;;4861837;29;20191;-91
2022/06/25 03:11:16;;;;;;;6.93;6.22;;;21.60;62.50;;;;;;4861755;29;20185;-91
2022/06/25 03:13:42;;;;;;;7.00;6.30;;;21.60;62.50;;;;;;4877092;29;20272;-91
2022/06/25 03:16:13;;;;;;;6.93;6.25;;;21.60;63.30;;;;;;4876941;29;20164;-91
2022/06/25 03:18:50;;;;;;;7.13;6.43;;;21.70;62.50;;;;;;4876649;29;20598;-91
2022/06/25 03:21:16;;;;;;;7.30;6.57;;;21.60;62.50;;;;;;4877193;29;20175;-90
2022/06/25 03:23:44;;;;;;;7.00;6.30;;;21.60;62.50;;;;;;4860930;29;20194;-90
2022/06/25 03:26:15;;;;;;;6.90;6.20;;;21.70;62.60;;;;;;4876526;29;20199;-91
2022/06/25 03:28:45;;;;;;;6.90;6.18;;;21.70;62.60;;;;;;4876848;29;20682;-91
2022/06/25 03:31:11;;;;;;;7.28;6.40;;;21.60;62.50;;;;;;4877036;29;20183;-91
2022/06/25 03:33:36;;;;;;;6.95;6.25;;;21.60;62.50;;;;;;4863525;29;20207;-91
2022/06/25 03:36:09;;;;;;;7.00;6.30;;;21.70;62.60;;;;;;4913888;29;20280;-91
2022/06/25 03:38:35;;;;;;;7.18;6.32;;;21.60;62.50;;;;;;4929689;29;20701;-90
2022/06/25 03:43:47;;;;;;;7.00;6.28;;;21.70;62.40;;;;;;4932780;29;20182;-90
2022/06/25 03:46:13;;;;;;;6.57;5.97;;;21.70;62.30;;;;;;4914514;29;20225;-91
2022/06/25 03:48:39;;;;;;;7.22;6.53;;;21.70;62.20;;;;;;4915061;29;20193;-91
2022/06/25 03:51:11;;;;;;;6.97;6.28;;;21.70;62.20;;;;;;4914609;29;20629;-91
2022/06/25 03:53:39;;;;;;;7.47;6.70;;;21.80;62.30;;;;;;4913640;29;20208;-91
2022/06/25 03:56:06;;;;;;;6.65;6.03;;;21.80;62.30;;;;;;4913566;29;20261;-91
2022/06/25 03:58:36;;;;;;;7.10;6.40;;;21.70;62.20;;;;;;4913585;29;20188;-90
2022/06/25 04:01:03;;;;;;;6.63;6.03;;;21.80;62.10;;;;;;4929730;29;20173;-91
2022/06/25 04:03:33;;;;;;;6.35;5.75;;;21.80;62.10;;;;;;4913764;29;20212;-91
2022/06/25 04:06:03;;;;;;;7.22;6.53;;;21.80;62.00;;;;;;4945403;29;20166;-91
2022/06/25 04:08:29;;;;;;;7.10;6.40;;;21.70;62.00;;;;;;4914731;29;20170;-91
2022/06/25 04:10:54;;;;;;;7.03;6.32;;;21.80;61.90;;;;;;4913622;29;20170;-91
2022/06/25 04:13:25;;;;;;;7.07;6.38;;;21.80;61.90;;;;;;4913673;29;20253;-91
2022/06/25 04:15:53;;;;;;;7.03;6.32;;;21.80;61.90;;;;;;4928747;29;20169;-91
2022/06/25 04:18:19;;;;;;;7.00;6.30;;;21.80;61.90;;;;;;4913125;29;20177;-91
2022/06/25 04:20:50;;;;;;;7.55;6.75;;;21.80;61.90;;;;;;4897801;29;20276;-91
2022/06/25 04:23:16;;;;;;;6.60;6.00;;;21.90;62.00;;;;;;4929733;29;20182;-91
2022/06/25 04:25:42;;;;;;;7.00;6.30;;;21.90;61.90;;;;;;4913853;29;20174;-91
2022/06/25 04:30:54;;;;;;;6.82;6.13;;;21.80;61.80;;;;;;4930994;29;20154;-91
2022/06/25 04:33:24;;;;;;;7.28;6.57;;;21.80;61.80;;;;;;4928539;29;20292;-90
2022/06/25 04:36:06;;;;;;;7.10;6.40;;;21.90;61.60;;;;;;4928759;29;20174;-90
2022/06/25 04:38:33;;;;;;;6.97;6.28;;;21.90;61.70;;;;;;4928576;29;20205;-91
2022/06/25 04:41:06;;;;;;;6.90;6.20;;;21.90;61.70;;;;;;4913550;29;20198;-91
2022/06/25 04:43:34;;;;;;;6.82;6.13;;;21.90;61.60;;;;;;4912972;29;20174;-91
2022/06/25 04:45:59;;;;;;;6.93;6.32;;;21.90;61.50;;;;;;4913276;29;20314;-91
2022/06/25 04:48:29;;;;;;;6.80;6.15;;;21.90;61.50;;;;;;4914293;29;20197;-91
2022/06/25 04:51:00;;;;;;;7.18;6.47;;;22.00;61.50;;;;;;4929344;29;20628;-91
2022/06/25 04:53:26;;;;;;;7.00;6.30;;;21.90;61.50;;;;;;4944978;29;20210;-91
2022/06/25 04:55:56;;;;;;;6.80;6.07;;;21.90;61.40;;;;;;4913571;29;20173;-91
2022/06/25 04:58:22;;;;;;;7.05;6.35;;;22.00;61.40;;;;;;4929533;29;20248;-91
2022/06/25 05:01:01;;;;;;;6.43;5.78;;;22.00;61.40;;;;;;4912805;29;20197;-91
2022/06/25 05:03:31;;;;;;;7.00;6.30;;;22.00;61.30;;;;;;4913407;29;20172;-91
2022/06/25 05:05:56;;;;;;;7.38;6.57;;;22.10;61.20;;;;;;4929169;29;20170;-90
2022/06/25 05:08:23;;;;;;;7.35;6.57;;;22.10;61.10;;;;;;4913038;29;20185;-91
2022/06/25 05:10:51;;;;;;;6.68;6.03;;;22.10;61.10;;;;;;4913547;29;20325;-90
2022/06/25 05:13:17;;;;;;;6.70;6.10;;;22.10;61.20;;;;;;4913339;29;20202;-90
2022/06/25 05:15:44;;;;;;;7.20;6.50;;;22.00;61.20;;;;;;4914068;29;20186;-90
2022/06/25 05:18:23;;;;;;;7.20;6.45;;;21.90;61.10;;;;;;4913793;29;20166;-90
2022/06/25 05:20:49;;;;;;;7.25;6.55;;;22.00;61.30;;;;;;4928980;29;20173;-90
2022/06/25 05:23:20;;;;;;;6.60;5.95;;;22.00;61.40;;;;;;4913422;29;20216;-91
2022/06/25 05:25:47;;;;;;;7.28;6.50;;;22.00;61.30;;;;;;4944793;29;20206;-91
2022/06/25 05:28:15;;;;;;;7.35;6.57;;;22.00;61.20;;;;;;4913448;29;20181;-91
2022/06/25 05:30:42;;;;;;;6.80;6.15;;;22.10;61.20;;;;;;4913731;29;20181;-91
2022/06/25 05:33:21;;;;;;;7.30;6.60;;;22.10;60.90;;;;;;4913602;29;20202;-90
2022/06/25 05:35:54;;;;;;;6.88;6.18;;;22.10;60.90;;;;;;4945323;29;20173;-91
2022/06/25 05:38:21;;;;;;;6.30;5.70;;;22.10;60.90;;;;;;4944714;29;20167;-91
2022/06/25 05:40:50;;;;;;;7.25;6.55;;;22.20;60.90;;;;;;4912828;29;20173;-91
2022/06/25 05:43:16;;;;;;;6.90;6.20;;;22.10;60.90;;;;;;4945044;29;20162;-91
2022/06/25 05:45:42;;;;;;;6.97;6.28;;;22.20;60.80;;;;;;4913317;29;20225;-90
2022/06/25 05:48:12;;;;;;;7.18;6.47;;;22.10;60.90;;;;;;4913429;29;20178;-91
2022/06/25 05:50:49;;;;;;;7.07;6.32;;;22.10;61.00;;;;;;4930840;29;20190;-90
2022/06/25 05:53:15;;;;;;;7.40;6.60;;;22.10;60.80;;;;;;4932651;29;20209;-91
2022/06/25 05:55:47;;;;;;;6.90;6.20;;;22.10;60.90;;;;;;4916831;29;20166;-91
2022/06/25 05:58:14;;;;;;;6.63;5.97;;;22.20;60.70;;;;;;4932374;29;20166;-90
2022/06/25 06:00:41;;;;;;;6.90;6.20;;;22.20;60.60;;;;;;4916846;29;20166;-91
2022/06/25 06:03:17;;;;;;;6.40;5.80;;;22.20;60.70;;;;;;4916429;29;20252;-91
2022/06/25 06:05:47;;;;;;;7.28;6.28;;;22.20;60.80;;;;;;4932353;29;20260;-91
2022/06/25 06:08:15;;;;;;;7.35;6.65;;;22.30;60.60;;;;;;4933437;29;20174;-91
2022/06/25 06:10:43;;;;;;;7.03;6.32;;;22.20;60.40;;;;;;4916959;29;20567;-90
2022/06/25 06:13:09;;;;;;;6.65;6.05;;;22.30;60.40;;;;;;4917048;29;20296;-91
2022/06/25 06:15:36;;;;;;;7.18;6.38;;;22.40;60.30;;;;;;4916579;29;20193;-90
2022/06/25 06:18:03;;;;;;;6.70;6.10;;;22.30;60.20;;;;;;4916208;29;20170;-90
2022/06/25 06:20:29;;;;;;;7.60;6.78;;;22.30;60.30;;;;;;4916673;29;20162;-90
2022/06/25 06:22:55;;;;;;;7.10;6.40;;;22.40;60.10;;;;;;4916884;29;20202;-90
2022/06/25 06:25:22;;;;;;;7.10;6.40;;;22.30;60.10;;;;;;4916919;29;20648;-91
2022/06/25 06:27:49;;;;;;;6.57;5.97;;;22.40;60.10;;;;;;4916920;29;20170;-90
2022/06/25 06:30:16;;;;;;;6.82;6.20;;;22.40;60.10;;;;;;4916495;29;20193;-90
2022/06/25 06:32:43;;;;;;;7.13;6.43;;;22.50;59.90;;;;;;4916055;29;20645;-91
2022/06/25 06:35:16;;;;;;;6.70;6.07;;;22.50;59.80;;;;;;4916058;29;20680;-90
2022/06/25 06:37:41;;;;;;;7.30;6.60;;;22.50;59.80;;;;;;4884090;29;20178;-91
2022/06/25 06:40:11;;;;;;;6.88;6.20;;;22.40;60.00;;;;;;4914877;29;20237;-91
2022/06/25 06:42:38;;;;;;;6.15;5.55;;;22.40;60.10;;;;;;4947518;29;20189;-91
2022/06/25 06:45:04;;;;;;;6.65;6.05;;;22.30;60.00;;;;;;4916001;29;20212;-90
2022/06/25 06:47:30;;;;;;;6.97;6.38;;;22.40;60.00;;;;;;4914575;29;20221;-90
2022/06/25 06:49:56;;;;;;;7.03;6.32;;;22.30;60.10;;;;;;4912463;29;20687;-90
2022/06/25 06:52:26;;;;;;;6.93;6.25;;;22.40;59.90;;;;;;4912710;29;20166;-89
2022/06/25 06:54:52;;;;;;;6.82;6.13;;;22.50;59.70;;;;;;4914026;29;20201;-89
2022/06/25 06:57:17;;;;;;;6.75;6.05;;;22.60;59.60;;;;;;4930464;29;20158;-89
2022/06/25 06:59:43;;;;;;;6.88;6.28;;;22.60;59.70;;;;;;4908999;29;20593;-90
2022/06/25 07:02:10;;;;;;;6.55;5.95;;;22.50;59.70;;;;;;4908098;29;20257;-90
2022/06/25 07:04:37;;;;;;;6.82;6.13;;;22.50;59.70;;;;;;4907940;29;20208;-91
2022/06/25 07:07:04;;;;;;;7.00;6.30;;;22.40;59.90;;;;;;4923589;29;20221;-90
2022/06/25 07:09:29;;;;;;;6.68;6.07;;;22.40;60.00;;;;;;4923690;29;20240;-90
2022/06/25 07:11:59;;;;;;;6.78;6.18;;;22.30;60.30;;;;;;4923761;29;20208;-90
2022/06/25 07:14:25;;;;;;;6.47;5.88;;;22.20;60.70;;;;;;4923062;29;20209;-90
2022/06/25 07:16:53;;;;;;;6.80;6.10;;;22.10;60.90;;;;;;4906783;29;20166;-91
2022/06/25 07:19:19;;;;;;;6.93;6.22;;;22.10;60.80;;;;;;4906989;29;20169;-90
2022/06/25 07:21:52;;;;;;;6.80;6.10;;;22.20;60.80;;;;;;4907037;29;20173;-90
2022/06/25 07:24:18;;;;;;;7.28;6.57;;;22.10;60.90;;;;;;4922891;29;20628;-90
2022/06/25 07:26:44;;;;;;;6.90;6.20;;;22.00;61.20;;;;;;4906079;29;20177;-90
2022/06/25 07:29:12;;;;;;;6.80;6.18;;;22.10;61.30;;;;;;4937447;29;20170;-91
2022/06/25 07:31:46;;;;;;;6.88;6.25;;;22.00;61.30;;;;;;4907250;29;20173;-91
2022/06/25 07:34:12;;;;;;;7.13;6.43;;;22.00;61.30;;;;;;4922758;29;20197;-91
2022/06/25 07:36:39;;;;;;;6.88;6.18;;;22.00;61.30;;;;;;4921961;29;20158;-92
2022/06/25 07:39:04;;;;;;;7.15;6.45;;;22.10;61.20;;;;;;4922048;29;20159;-91
2022/06/25 07:41:31;;;;;;;6.65;6.03;;;22.10;61.20;;;;;;4905924;29;20158;-89
2022/06/25 07:43:58;;;;;;;7.05;6.40;;;22.20;60.90;;;;;;4922693;29;20214;-89
2022/06/25 07:46:23;;;;;;;6.32;5.72;;;22.20;60.80;;;;;;4906103;29;20245;-88
2022/06/25 07:48:52;;;;;;;6.57;5.97;;;22.30;60.50;;;;;;4906522;29;20173;-89
2022/06/25 07:53:59;;;;;;;6.93;6.22;;;22.30;60.70;;;;;;4923550;29;20201;-89
2022/06/25 07:56:27;;;;;;;6.65;6.05;;;22.20;60.80;;;;;;4906196;29;20213;-89
2022/06/25 07:58:56;;;;;;;6.90;6.22;;;22.20;60.70;;;;;;4905995;29;20510;-89
2022/06/25 08:01:23;;;;;;;6.90;6.10;;;22.30;60.50;;;;;;4907123;29;20174;-88
2022/06/25 08:03:50;;;;;;;7.18;6.47;;;22.30;60.60;;;;;;4906834;29;20178;-90
2022/06/25 08:06:20;;;;;;;6.60;6.00;;;22.30;60.50;;;;;;4906523;29;20170;-90
2022/06/25 08:08:45;;;;;;;6.97;6.28;;;22.30;60.50;;;;;;4922235;29;20203;-90
2022/06/25 08:11:12;;;;;;;6.72;6.13;;;22.20;60.50;;;;;;4905887;29;20205;-90
2022/06/25 08:13:38;;;;;;;6.97;6.30;;;22.40;60.40;;;;;;4906305;29;20204;-89
2022/06/25 08:16:09;;;;;;;6.57;5.97;;;22.30;60.40;;;;;;4907002;29;20166;-90
2022/06/25 08:18:38;;;;;;;6.70;6.10;;;22.20;60.80;;;;;;4908353;29;20170;-90
2022/06/25 08:21:04;;;;;;;6.40;5.80;;;22.30;60.70;;;;;;4908173;29;20255;-90
2022/06/25 08:23:31;;;;;;;6.93;6.22;;;22.30;60.50;;;;;;4908828;29;20174;-90
2022/06/25 08:25:58;;;;;;;6.60;6.00;;;22.30;60.40;;;;;;4924985;29;20174;-89
2022/06/25 08:28:24;;;;;;;7.15;6.38;;;22.40;60.70;;;;;;4909979;29;20162;-89
2022/06/25 08:30:51;;;;;;;6.90;6.20;;;22.30;60.70;;;;;;4910285;29;20170;-89
2022/06/25 08:33:17;;;;;;;6.15;5.63;;;22.40;60.50;;;;;;4909593;29;20618;-91
2022/06/25 08:35:43;;;;;;;6.35;5.75;;;22.30;60.40;;;;;;4906712;29;20170;-90
2022/06/25 08:38:09;;;;;;;6.47;5.85;;;22.40;60.50;;;;;;4906723;29;20166;-90
2022/06/25 08:40:38;;;;;;;6.68;6.03;;;22.30;60.40;;;;;;4907618;29;20629;-90
2022/06/25 08:43:05;;;;;;;6.10;5.50;;;22.30;60.60;;;;;;4921748;29;20177;-90
2022/06/25 08:45:39;;;;;;;7.03;6.32;;;22.40;60.70;;;;;;4905335;29;20169;-92
2022/06/25 08:48:15;;;;;;;6.72;6.10;;;22.40;60.40;;;;;;4906136;29;20649;-89
2022/06/25 08:50:42;;;;;;;6.70;6.10;;;22.40;60.40;;;;;;4891172;29;20201;-90
2022/06/25 08:53:13;;;;;;;6.70;6.00;;;22.40;60.40;;;;;;4890667;29;20296;-90
2022/06/25 08:55:40;;;;;;;7.00;6.30;;;22.40;60.60;;;;;;4905834;29;20170;-90
2022/06/25 08:58:06;;;;;;;6.95;6.30;;;22.40;60.60;;;;;;4889896;29;20166;-90
2022/06/25 09:00:46;;;;;;;6.57;5.97;;;22.40;60.40;;;;;;4906260;29;20638;-90
2022/06/25 09:03:18;;;;;;;6.15;5.55;;;22.40;60.30;;;;;;4907094;29;20240;-90
2022/06/25 09:05:45;;;;;;;6.50;5.68;;;22.40;60.30;;;;;;4891381;29;20565;-91
2022/06/25 09:08:14;;;;;;;6.70;6.10;;;22.40;60.40;;;;;;4890418;29;20170;-91
2022/06/25 09:10:44;;;;;;;6.30;5.70;;;22.40;61.20;;;;;;4905958;29;20193;-90
2022/06/25 09:13:10;;;;;;;5.72;5.22;;;22.40;60.40;;;;;;4906326;29;20186;-90
2022/06/25 09:15:39;;;;;;;6.47;5.68;;;22.40;60.40;;;;;;4889848;29;20189;-91
2022/06/25 09:18:08;;;;;;;6.28;5.68;;;22.50;60.30;;;;;;4891314;29;20169;-90
2022/06/25 09:21:00;;;;;;;6.88;6.18;;;22.50;60.30;;;;;;4890901;29;20521;-91
2022/06/25 09:23:28;;;;;;;6.28;5.68;;;22.40;60.30;;;;;;4921461;29;20166;-90
2022/06/25 09:26:12;;;;;;;6.15;5.65;;;22.50;60.40;;;;;;4892103;29;20632;-90
2022/06/25 09:28:39;;;;;;;7.18;6.13;;;22.50;60.20;;;;;;4908647;29;20194;-91
2022/06/25 09:31:05;;;;;;;6.10;5.50;;;22.50;60.20;;;;;;4894588;29;20192;-90
2022/06/25 09:33:31;;;;;;;6.18;5.43;;;22.50;60.30;;;;;;4894495;29;20206;-91
2022/06/25 09:35:58;;;;;;;6.22;5.63;;;22.50;60.30;;;;;;4895363;29;20252;-90
2022/06/25 09:38:25;;;;;;;6.05;5.45;;;22.50;60.00;;;;;;4894845;29;20170;-91
2022/06/25 09:40:52;;;;;;;6.00;5.50;;;22.50;60.10;;;;;;4893933;29;20170;-90
2022/06/25 09:43:20;;;;;;;6.40;5.80;;;22.50;60.10;;;;;;4909946;29;20170;-90
2022/06/25 09:45:47;;;;;;;5.88;5.38;;;22.50;60.10;;;;;;4895126;29;20259;-90
2022/06/25 09:48:21;;;;;;;6.20;5.60;;;22.50;60.20;;;;;;4913126;29;20170;-91
2022/06/25 09:51:05;;;;;;;5.63;5.13;;;22.50;60.10;;;;;;4911980;29;20189;-91
2022/06/25 09:54:28;;;;;;;5.60;5.10;;;22.50;60.30;;;;;;4911160;29;20209;-91
2022/06/25 09:57:21;;;;;;;5.75;5.25;;;22.50;60.10;;;;;;4923318;29;20196;-91
2022/06/25 09:59:49;;;;;;;5.68;5.18;;;22.50;60.10;;;;;;4901583;29;20183;-91
2022/06/25 10:02:16;;;;;;;6.30;5.70;;;22.50;60.30;;;;;;4864389;29;20191;-90
2022/06/25 10:04:44;;;;;;;5.95;5.45;;;22.50;60.30;;;;;;4861635;29;20187;-91
2022/06/25 10:07:12;;;;;;;6.30;5.70;;;22.40;60.40;;;;;;4859426;29;20259;-90
2022/06/25 10:09:41;;;;;;;5.72;5.18;;;22.40;60.40;;;;;;4862933;29;20188;-90
2022/06/25 10:12:10;;;;;;;5.72;5.20;;;22.40;60.50;;;;;;4877708;29;20195;-90
2022/06/25 10:14:40;;;;;;;6.00;5.40;;;22.40;60.40;;;;;;4877111;29;20536;-91
2022/06/25 10:17:07;;;;;;;5.78;5.28;;;22.40;60.20;;;;;;4876671;29;20184;-88
2022/06/25 10:19:35;;;;;;;6.20;5.60;;;22.50;60.40;;;;;;4860717;29;20200;-90
2022/06/25 10:22:35;;;;;;;6.05;5.45;;;22.40;60.40;;;;;;4861350;29;20195;-90
2022/06/25 10:25:01;;;;;;;6.45;5.85;;;22.40;60.50;;;;;;4853296;29;20278;-89
2022/06/25 10:27:36;;;;;;;6.13;5.53;;;22.40;60.50;;;;;;4851059;29;20184;-90
2022/06/25 10:30:05;;;;;;;6.10;5.50;;;22.50;60.50;;;;;;4848165;29;20186;-90
2022/06/25 10:32:34;;;;;;;6.10;5.50;;;22.50;60.20;;;;;;4876658;29;20195;-90
2022/06/25 10:35:08;;;;;;;6.03;5.43;;;22.50;60.10;;;;;;4876135;29;20243;-90
2022/06/25 10:38:02;;;;;;;6.13;5.53;;;22.50;60.20;;;;;;4863870;29;20189;-89
2022/06/25 10:40:45;;;;;;;6.07;5.47;;;22.60;60.30;;;;;;4893984;29;20188;-89
2022/06/25 10:43:41;;;;;;;6.38;5.63;;;22.50;60.30;;;;;;4894053;29;20175;-90
2022/06/25 10:46:36;;;;;;;6.82;5.50;;;22.40;60.40;;;;;;4894801;29;20198;-90
2022/06/25 10:49:10;;;;;;;6.25;5.28;;;22.40;60.60;;;;;;4856590;29;20319;-89
2022/06/25 10:51:42;;;;;;;5.65;5.13;;;22.50;60.50;;;;;;4855666;29;20238;-90
2022/06/25 10:54:33;;;;;;;5.57;5.07;;;22.40;60.60;;;;;;4825975;29;20201;-89
2022/06/25 10:57:02;;;;;;;6.05;5.45;;;22.40;60.70;;;;;;4896394;29;20178;-90
2022/06/25 10:59:47;;;;;;;6.03;5.45;;;22.40;60.60;;;;;;4912721;29;20186;-89
2022/06/25 11:02:15;;;;;;;6.10;5.50;;;22.40;60.60;;;;;;4911185;29;20170;-89
2022/06/25 11:04:52;;;;;;;5.63;5.13;;;22.40;60.80;;;;;;4895311;29;20231;-89
2022/06/25 11:07:21;;;;;;;5.47;4.97;;;22.40;60.70;;;;;;4910843;29;20177;-89
2022/06/25 11:09:56;;;;;;;5.88;5.38;;;22.40;60.60;;;;;;4894477;29;20166;-90
2022/06/25 11:12:22;;;;;;;5.65;5.15;;;22.40;60.70;;;;;;4893812;29;20166;-89
2022/06/25 11:15:10;;;;;;;5.60;5.00;;;22.40;60.50;;;;;;4909643;29;20187;-89
2022/06/25 11:17:39;;;;;;;5.65;5.15;;;22.50;60.40;;;;;;4910310;29;20654;-90
2022/06/25 11:20:07;;;;;;;6.05;5.47;;;22.50;60.10;;;;;;4927461;29;20170;-89
2022/06/25 11:22:33;;;;;;;5.80;5.30;;;22.50;60.10;;;;;;4895125;29;20159;-90
2022/06/25 11:30:28;;;;;;;5.82;5.32;;;22.50;60.10;;;;;;4912998;29;20189;-89
2022/06/25 11:32:54;;;;;;;5.53;5.03;;;22.50;60.10;;;;;;4894971;29;20171;-89
2022/06/25 11:35:22;;;;;;;6.22;5.30;;;22.50;60.30;;;;;;4895556;29;20170;-89
2022/06/25 11:37:49;;;;;;;5.82;5.30;;;22.50;60.40;;;;;;4894686;29;20178;-89
2022/06/25 11:40:15;;;;;;;5.40;4.90;;;22.50;60.30;;;;;;4909400;29;20640;-90
2022/06/25 11:42:43;;;;;;;5.80;5.30;;;22.50;60.30;;;;;;4909699;29;20162;-89
2022/06/25 11:45:09;;;;;;;5.78;5.25;;;22.50;60.40;;;;;;4893899;29;20190;-89
2022/06/25 11:47:35;;;;;;;5.47;4.97;;;22.50;60.40;;;;;;4887969;29;20230;-90
2022/06/25 11:50:10;;;;;;;5.32;4.82;;;22.50;60.60;;;;;;4877067;29;20178;-90
2022/06/25 11:52:42;;;;;;;5.85;5.35;;;22.40;60.70;;;;;;4894433;29;20170;-89
2022/06/25 11:55:20;;;;;;;6.18;5.57;;;22.50;60.60;;;;;;4910256;29;20175;-90
2022/06/25 11:57:47;;;;;;;5.35;4.85;;;22.50;60.50;;;;;;4895091;29;20186;-89
2022/06/25 12:00:20;;;;;;;6.28;5.68;;;22.60;60.40;;;;;;4879110;29;20214;-89
2022/06/25 12:02:47;;;;;;;5.50;5.00;;;22.60;60.20;;;;;;4909622;29;20177;-89
2022/06/25 12:05:23;;;;;;;5.90;5.40;;;22.60;60.30;;;;;;4877932;29;20167;-89
2022/06/25 12:07:49;;;;;;;5.63;5.13;;;22.50;60.40;;;;;;4893809;29;20170;-89
2022/06/25 12:10:25;;;;;;;5.65;5.15;;;22.60;61.20;;;;;;4878120;29;20190;-88
2022/06/25 12:13:01;;;;;;;5.40;4.90;;;22.50;60.30;;;;;;4894635;29;20634;-89
2022/06/25 12:15:30;;;;;;;5.75;5.25;;;22.70;60.10;;;;;;4877726;29;20177;-89
2022/06/25 12:18:04;;;;;;;5.28;4.78;;;22.60;59.90;;;;;;4877697;29;20163;-89
2022/06/25 12:20:31;;;;;;;5.25;4.75;;;22.70;59.80;;;;;;4893242;29;20618;-89
2022/06/25 12:23:06;;;;;;;5.85;5.35;;;22.70;59.80;;;;;;4909133;29;20666;-90
2022/06/25 12:25:33;;;;;;;6.35;5.75;;;22.70;59.70;;;;;;4880623;29;20170;-90
2022/06/25 12:28:02;;;;;;;5.53;5.03;;;22.70;59.70;;;;;;4893205;29;20211;-89
2022/06/25 12:30:31;;;;;;;5.47;4.97;;;22.70;59.80;;;;;;4878467;29;20168;-90
2022/06/25 12:33:22;;;;;;;5.68;5.13;;;22.60;59.80;;;;;;4893430;29;20170;-89
2022/06/25 12:35:50;;;;;;;5.95;4.95;;;22.60;59.90;;;;;;4894335;29;20238;-89
2022/06/25 12:38:18;;;;;;;5.18;4.68;;;22.60;60.00;;;;;;4879285;29;20652;-89
2022/06/25 12:40:47;;;;;;;5.53;4.93;;;22.70;60.00;;;;;;4878435;29;20174;-89
2022/06/25 12:43:25;;;;;;;5.28;4.78;;;22.60;59.90;;;;;;4878042;29;20229;-89
2022/06/25 12:45:54;;;;;;;5.50;5.00;;;22.70;59.80;;;;;;4879229;29;20214;-90
2022/06/25 12:48:30;;;;;;;5.40;4.90;;;22.70;60.70;;;;;;4889758;29;20238;-89
2022/06/25 12:51:40;;;;;;;5.78;5.28;;;22.70;59.90;;;;;;4878074;29;20210;-89
2022/06/25 12:54:26;;;;;;;5.40;4.90;;;22.70;60.10;;;;;;4837692;29;20231;-90
2022/06/25 12:56:56;;;;;;;5.90;5.30;;;22.70;60.00;;;;;;4836475;29;20275;-90
2022/06/25 12:59:22;;;;;;;5.50;5.00;;;22.80;59.80;;;;;;4821789;29;20326;-90
2022/06/25 13:01:48;;;;;;;5.40;4.90;;;22.70;59.80;;;;;;4852340;29;20668;-89
2022/06/25 13:04:23;;;;;;;5.43;4.93;;;22.70;59.70;;;;;;4837427;29;20192;-90
2022/06/25 13:06:53;;;;;;;5.60;5.10;;;22.70;59.90;;;;;;4823550;29;20180;-90
2022/06/25 13:09:18;;;;;;;5.85;5.25;;;22.70;59.80;;;;;;4836745;29;20219;-90
2022/06/25 13:11:45;;;;;;;5.55;5.00;;;22.70;60.60;;;;;;4836451;29;20652;-89
2022/06/25 13:14:14;;;;;;;5.47;4.97;;;22.70;59.80;;;;;;4836582;29;20220;-89
2022/06/25 13:16:42;;;;;;;5.45;4.95;;;22.70;59.90;;;;;;4821887;29;20208;-90
2022/06/25 13:19:12;;;;;;;5.45;4.95;;;22.70;59.70;;;;;;4837435;29;20185;-89
2022/06/25 13:21:44;;;;;;;5.30;4.80;;;22.70;60.60;;;;;;4836535;29;20172;-89
2022/06/25 13:24:15;;;;;;;6.00;5.40;;;22.70;59.90;;;;;;4865726;29;20187;-89
2022/06/25 13:26:42;;;;;;;5.20;4.75;;;22.70;59.80;;;;;;4873131;29;20187;-89
2022/06/25 13:29:10;;;;;;;5.22;4.72;;;22.70;59.90;;;;;;4872938;29;20191;-90